createdAt,value
2022-10-26T00:01:07.887Z,65.41
2022-10-26T00:03:35.254Z,65.64
2022-10-26T00:06:07.131Z,65.89
2022-10-26T00:08:33.897Z,65.53
2022-10-26T00:11:02.450Z,65.30
2022-10-26T00:13:29.272Z,65.33
2022-10-26T00:15:56.526Z,65.10
2022-10-26T00:18:23.808Z,64.79
2022-10-26T00:20:51.177Z,64.77
2022-10-26T00:23:17.835Z,65.03
2022-10-26T00:25:44.698Z,65.13
2022-10-26T00:28:12.710Z,65.44
2022-10-26T00:30:40.183Z,65.41
2022-10-26T00:33:07.035Z,65.95
2022-10-26T00:35:45.529Z,65.91
2022-10-26T00:38:12.722Z,66.03
2022-10-26T00:40:39.548Z,66.04
2022-10-26T00:43:06.683Z,66.08
2022-10-26T00:45:34.993Z,65.58
2022-10-26T00:48:07.458Z,65.75
2022-10-26T00:50:38.879Z,65.60
2022-10-26T00:53:06.989Z,65.47
2022-10-26T00:55:37.356Z,65.55
2022-10-26T00:58:06.885Z,65.63
2022-10-26T01:00:35.103Z,65.20
2022-10-26T01:03:06.433Z,65.10
2022-10-26T01:05:36.495Z,65.25
2022-10-26T01:08:03.687Z,64.84
2022-10-26T01:10:30.934Z,65.01
2022-10-26T01:12:59.303Z,65.05
2022-10-26T01:15:36.590Z,64.86
2022-10-26T01:18:13.350Z,65.04
2022-10-26T01:21:03.769Z,65.10
2022-10-26T01:23:36.793Z,64.99
2022-10-26T01:26:22.709Z,64.86
2022-10-26T01:29:29.377Z,65.05
2022-10-26T01:32:04.730Z,65.03
2022-10-26T01:34:35.970Z,64.98
2022-10-26T01:37:08.555Z,65.01
2022-10-26T01:39:39.259Z,65.33
2022-10-26T01:42:09.472Z,65.41
2022-10-26T01:44:42.482Z,65.45
2022-10-26T01:47:14.809Z,65.36
2022-10-26T01:49:46.856Z,65.37
2022-10-26T01:52:13.693Z,65.60
2022-10-26T01:54:40.380Z,65.93
2022-10-26T01:57:11.284Z,65.98
2022-10-26T01:59:54.898Z,65.77
2022-10-26T02:02:51.474Z,65.89
2022-10-26T02:05:48.004Z,66.08
2022-10-26T02:08:24.181Z,66.39
2022-10-26T02:11:02.445Z,66.33
2022-10-26T02:13:38.537Z,66.53
2022-10-26T02:16:15.505Z,66.54
2022-10-26T02:18:49.272Z,66.74
2022-10-26T02:21:20.036Z,66.49
2022-10-26T02:23:49.135Z,66.88
2022-10-26T02:26:20.199Z,66.96
2022-10-26T02:28:50.207Z,67.17
2022-10-26T02:31:19.499Z,66.90
2022-10-26T02:33:50.523Z,67.48
2022-10-26T02:36:21.413Z,67.50
2022-10-26T02:38:49.710Z,67.23
2022-10-26T02:41:18.274Z,67.35
2022-10-26T02:43:52.395Z,67.40
2022-10-26T02:46:22.857Z,67.23
2022-10-26T02:48:50.948Z,67.10
2022-10-26T02:51:22.443Z,66.96
2022-10-26T02:53:54.257Z,66.72
2022-10-26T02:56:25.894Z,66.34
2022-10-26T02:58:57.788Z,66.52
2022-10-26T03:01:24.890Z,66.70
2022-10-26T03:03:57.385Z,66.47
2022-10-26T03:06:24.745Z,66.44
2022-10-26T03:08:52.317Z,66.33
2022-10-26T03:11:19.202Z,66.34
2022-10-26T03:13:46.088Z,66.21
2022-10-26T03:16:13.251Z,65.88
2022-10-26T03:18:40.012Z,66.16
2022-10-26T03:21:08.099Z,65.80
2022-10-26T03:23:34.764Z,65.89
2022-10-26T03:26:01.457Z,65.76
2022-10-26T03:28:28.324Z,65.61
2022-10-26T03:30:55.063Z,65.56
2022-10-26T03:33:25.618Z,65.42
2022-10-26T03:35:55.748Z,65.35
2022-10-26T03:38:24.079Z,65.40
2022-10-26T03:40:50.807Z,65.21
2022-10-26T03:43:17.686Z,65.22
2022-10-26T03:45:44.571Z,64.82
2022-10-26T03:48:11.350Z,64.79
2022-10-26T03:50:38.013Z,64.93
2022-10-26T03:53:04.718Z,64.73
2022-10-26T03:55:32.801Z,65.08
2022-10-26T03:57:59.509Z,64.93
2022-10-26T04:00:26.341Z,64.70
2022-10-26T04:02:57.333Z,64.94
2022-10-26T04:05:24.645Z,64.88
2022-10-26T04:07:54.872Z,64.76
2022-10-26T04:10:22.090Z,64.79
2022-10-26T04:12:50.286Z,64.96
2022-10-26T04:15:18.118Z,65.37
2022-10-26T04:17:44.995Z,65.27
2022-10-26T04:20:12.357Z,65.58
2022-10-26T04:22:39.345Z,65.59
2022-10-26T04:25:07.515Z,65.69
2022-10-26T04:27:34.221Z,65.43
2022-10-26T04:30:02.262Z,65.57
2022-10-26T04:32:28.948Z,65.83
2022-10-26T04:34:55.675Z,65.94
2022-10-26T04:37:22.318Z,65.64
2022-10-26T04:39:48.949Z,65.74
2022-10-26T04:42:15.689Z,65.71
2022-10-26T04:44:42.328Z,65.38
2022-10-26T04:47:10.357Z,65.90
2022-10-26T04:49:36.980Z,65.80
2022-10-26T04:52:05.408Z,65.51
2022-10-26T04:54:32.035Z,65.24
2022-10-26T04:56:58.715Z,65.47
2022-10-26T04:59:25.449Z,65.68
2022-10-26T05:01:52.233Z,65.79
2022-10-26T05:04:20.343Z,65.60
2022-10-26T05:06:46.998Z,65.49
2022-10-26T05:09:13.723Z,65.53
2022-10-26T05:11:40.433Z,65.71
2022-10-26T05:14:07.200Z,65.27
2022-10-26T05:16:34.010Z,65.71
2022-10-26T05:19:00.689Z,65.42
2022-10-26T05:21:28.951Z,65.14
2022-10-26T05:23:55.752Z,65.41
2022-10-26T05:26:23.472Z,65.62
2022-10-26T05:28:51.881Z,65.50
2022-10-26T05:31:18.777Z,65.79
2022-10-26T05:33:48.933Z,65.92
2022-10-26T05:36:15.751Z,65.96
2022-10-26T05:38:43.831Z,65.99
2022-10-26T05:41:10.566Z,66.24
2022-10-26T05:43:37.194Z,66.06
2022-10-26T05:46:04.187Z,66.44
2022-10-26T05:48:30.835Z,66.47
2022-10-26T05:50:59.377Z,66.78
2022-10-26T05:53:26.097Z,66.73
2022-10-26T05:55:55.603Z,66.00
2022-10-26T05:58:23.453Z,66.48
2022-10-26T06:01:07.795Z,67.01
2022-10-26T06:03:51.821Z,67.41
2022-10-26T06:06:19.064Z,67.16
2022-10-26T06:08:46.352Z,67.23
2022-10-26T06:11:15.325Z,67.58
2022-10-26T06:13:42.497Z,67.87
2022-10-26T06:16:30.556Z,67.90
2022-10-26T06:19:07.476Z,68.01
2022-10-26T06:21:47.816Z,68.01
2022-10-26T06:24:22.416Z,67.43
2022-10-26T06:26:59.151Z,67.58
2022-10-26T06:29:37.206Z,67.35
2022-10-26T06:32:04.022Z,67.21
2022-10-26T06:34:35.325Z,67.48
2022-10-26T06:37:03.866Z,67.70
2022-10-26T06:39:35.415Z,67.32
2022-10-26T06:42:04.196Z,67.17
2022-10-26T06:44:31.809Z,66.75
2022-10-26T06:47:06.112Z,66.97
2022-10-26T06:49:36.773Z,66.65
2022-10-26T06:52:11.795Z,66.74
2022-10-26T06:54:48.415Z,66.08
2022-10-26T06:57:18.614Z,66.28
2022-10-26T06:59:49.110Z,66.11
2022-10-26T07:02:16.178Z,66.03
2022-10-26T07:04:44.240Z,65.77
2022-10-26T07:07:12.539Z,66.22
2022-10-26T07:09:39.148Z,66.39
2022-10-26T07:12:06.750Z,66.08
2022-10-26T07:14:34.857Z,66.41
2022-10-26T07:17:01.841Z,66.06
2022-10-26T07:19:28.524Z,65.61
2022-10-26T07:21:56.668Z,65.69
2022-10-26T07:24:23.620Z,65.77
2022-10-26T07:26:50.281Z,66.22
2022-10-26T07:29:18.099Z,66.42
2022-10-26T07:31:46.235Z,66.42
2022-10-26T07:34:13.145Z,66.52
2022-10-26T07:36:40.124Z,66.96
2022-10-26T07:39:07.053Z,66.91
2022-10-26T07:41:34.386Z,67.28
2022-10-26T07:44:01.357Z,67.30
2022-10-26T07:46:28.119Z,67.38
2022-10-26T07:48:56.180Z,67.32
2022-10-26T07:51:22.879Z,67.33
2022-10-26T07:53:49.641Z,67.25
2022-10-26T07:56:16.384Z,66.94
2022-10-26T07:58:43.142Z,66.73
2022-10-26T08:01:11.717Z,66.59
2022-10-26T08:03:38.509Z,66.51
2022-10-26T08:06:07.548Z,66.47
2022-10-26T08:08:34.111Z,66.65
2022-10-26T08:11:00.953Z,66.93
2022-10-26T08:13:27.746Z,67.11
2022-10-26T08:15:57.392Z,66.40
2022-10-26T08:18:24.321Z,66.27
2022-10-26T08:20:51.113Z,66.71
2022-10-26T08:23:19.264Z,66.73
2022-10-26T08:25:46.053Z,66.87
2022-10-26T08:28:12.972Z,66.59
2022-10-26T08:30:39.761Z,66.46
2022-10-26T08:33:07.769Z,66.03
2022-10-26T08:35:35.085Z,65.91
2022-10-26T08:38:01.817Z,65.87
2022-10-26T08:40:34.597Z,65.59
2022-10-26T08:43:05.780Z,66.51
2022-10-26T08:45:38.448Z,66.49
2022-10-26T08:48:12.121Z,66.70
2022-10-26T08:50:43.902Z,65.76
2022-10-26T08:53:17.538Z,65.75
2022-10-26T08:55:48.838Z,65.64
2022-10-26T08:58:18.567Z,65.17
2022-10-26T09:00:48.874Z,65.62
2022-10-26T09:03:17.415Z,65.90
2022-10-26T09:05:57.159Z,65.81
2022-10-26T09:08:32.369Z,65.63
2022-10-26T09:11:08.177Z,65.67
2022-10-26T09:13:40.911Z,65.58
2022-10-26T09:16:18.742Z,65.58
2022-10-26T09:18:58.949Z,65.62
2022-10-26T09:21:38.374Z,65.31
2022-10-26T09:24:13.228Z,65.31
2022-10-26T09:26:53.794Z,65.33
2022-10-26T09:29:25.363Z,65.18
2022-10-26T09:31:54.461Z,65.07
2022-10-26T09:34:25.415Z,65.21
2022-10-26T09:36:56.358Z,65.24
2022-10-26T09:39:34.029Z,64.92
2022-10-26T09:42:07.960Z,65.08
2022-10-26T09:44:39.496Z,64.80
2022-10-26T09:47:15.462Z,64.71
2022-10-26T09:49:48.534Z,64.59
2022-10-26T09:52:15.934Z,64.72
2022-10-26T09:54:43.120Z,64.66
2022-10-26T09:57:16.084Z,64.38
2022-10-26T09:59:43.299Z,64.66
2022-10-26T10:02:34.914Z,64.28
2022-10-26T10:05:02.014Z,64.25
2022-10-26T10:07:28.912Z,64.12
2022-10-26T10:10:16.007Z,63.74
2022-10-26T10:12:45.966Z,63.90
2022-10-26T10:15:21.129Z,64.23
2022-10-26T10:17:53.007Z,64.61
2022-10-26T10:20:22.327Z,64.41
2022-10-26T10:22:56.673Z,64.47
2022-10-26T10:25:33.183Z,65.01
2022-10-26T10:28:01.974Z,65.00
2022-10-26T10:30:31.420Z,64.14
2022-10-26T10:33:05.642Z,63.96
2022-10-26T10:35:32.663Z,62.89
2022-10-26T10:38:00.065Z,62.64
2022-10-26T10:40:30.707Z,62.41
2022-10-26T10:43:14.414Z,61.81
2022-10-26T10:45:46.654Z,61.50
2022-10-26T10:48:16.625Z,61.56
2022-10-26T10:50:52.709Z,61.47
2022-10-26T10:53:23.560Z,60.75
2022-10-26T10:56:01.167Z,60.70
2022-10-26T10:58:38.047Z,60.41
2022-10-26T11:01:11.857Z,59.89
2022-10-26T11:04:12.545Z,59.38
2022-10-26T11:06:41.406Z,59.17
2022-10-26T11:09:09.778Z,59.19
2022-10-26T11:11:45.463Z,59.33
2022-10-26T11:14:18.386Z,58.38
2022-10-26T11:16:49.947Z,58.04
2022-10-26T11:19:22.256Z,57.83
2022-10-26T11:21:53.572Z,57.55
2022-10-26T11:24:25.832Z,56.95
2022-10-26T11:26:57.435Z,56.78
2022-10-26T11:29:36.740Z,56.21
2022-10-26T11:32:15.341Z,55.88
2022-10-26T11:34:48.248Z,55.60
2022-10-26T11:37:21.109Z,55.03
2022-10-26T11:40:01.292Z,53.36
2022-10-26T11:42:34.814Z,53.26
2022-10-26T11:45:13.323Z,53.52
2022-10-26T11:47:43.976Z,54.45
2022-10-26T11:50:17.695Z,54.30
2022-10-26T11:52:49.537Z,54.28
2022-10-26T11:55:18.506Z,53.96
2022-10-26T11:57:46.590Z,54.09
2022-10-26T12:00:20.757Z,54.33
2022-10-26T12:02:51.001Z,54.53
2022-10-26T12:05:22.346Z,54.57
2022-10-26T12:07:53.494Z,54.26
2022-10-26T12:10:29.134Z,54.01
2022-10-26T12:13:05.586Z,53.98
2022-10-26T12:18:54.435Z,54.03
2022-10-26T12:21:27.621Z,53.39
2022-10-26T12:23:56.067Z,52.90
2022-10-26T12:26:53.611Z,53.05
2022-10-26T12:29:45.202Z,52.80
2022-10-26T12:32:54.359Z,52.06
2022-10-26T12:35:35.879Z,51.87
2022-10-26T12:38:46.440Z,51.96
2022-10-26T12:41:27.524Z,52.27
2022-10-26T12:44:24.285Z,52.41
2022-10-26T12:46:50.987Z,52.20
2022-10-26T12:49:53.937Z,51.59
2022-10-26T12:52:25.843Z,51.00
2022-10-26T12:55:28.254Z,51.30
2022-10-26T12:58:08.704Z,50.42
2022-10-26T13:00:39.957Z,50.92
2022-10-26T13:03:23.660Z,51.01
2022-10-26T13:06:13.734Z,51.44
2022-10-26T13:08:43.434Z,51.41
2022-10-26T13:11:17.461Z,51.48
2022-10-26T13:13:53.242Z,51.96
2022-10-26T13:16:20.277Z,51.71
2022-10-26T13:18:50.678Z,51.38
2022-10-26T13:21:19.467Z,51.71
2022-10-26T13:23:47.988Z,51.85
2022-10-26T13:26:17.297Z,51.51
2022-10-26T13:28:51.340Z,51.28
2022-10-26T13:31:54.725Z,51.67
2022-10-26T13:34:24.152Z,51.79
2022-10-26T13:36:59.284Z,51.65
2022-10-26T13:39:29.873Z,51.59
2022-10-26T13:41:58.541Z,51.65
2022-10-26T13:44:30.641Z,51.61
2022-10-26T13:47:02.459Z,51.62
2022-10-26T13:49:33.267Z,51.96
2022-10-26T13:52:02.996Z,51.85
2022-10-26T13:54:36.713Z,51.76
2022-10-26T13:57:16.902Z,52.06
2022-10-26T13:59:45.742Z,51.86
2022-10-26T14:02:19.421Z,51.87
2022-10-26T14:04:47.787Z,51.86
2022-10-26T14:07:23.575Z,51.59
2022-10-26T14:09:55.824Z,51.70
2022-10-26T14:12:24.400Z,51.55
2022-10-26T14:14:53.733Z,51.31
2022-10-26T14:17:22.444Z,51.10
2022-10-26T14:19:50.036Z,51.25
2022-10-26T14:22:23.175Z,51.34
2022-10-26T14:24:53.417Z,51.53
2022-10-26T14:27:21.878Z,51.37
2022-10-26T14:30:03.955Z,51.41
2022-10-26T14:32:37.864Z,51.00
2022-10-26T14:35:05.313Z,51.14
2022-10-26T14:37:39.083Z,51.30
2022-10-26T14:40:07.887Z,51.43
2022-10-26T14:42:35.632Z,51.57
2022-10-26T14:45:03.324Z,51.56
2022-10-26T14:47:32.819Z,51.61
2022-10-26T14:50:02.925Z,51.53
2022-10-26T14:52:32.863Z,51.58
2022-10-26T14:55:01.597Z,51.66
2022-10-26T14:57:33.641Z,51.59
2022-10-26T15:00:01.662Z,51.37
2022-10-26T15:02:28.563Z,51.64
2022-10-26T15:05:02.399Z,51.59
2022-10-26T15:07:36.839Z,51.63
2022-10-26T15:10:04.506Z,52.13
2022-10-26T15:12:33.321Z,52.09
2022-10-26T15:15:06.674Z,52.47
2022-10-26T15:17:38.262Z,52.46
2022-10-26T15:20:12.507Z,52.88
2022-10-26T15:22:40.365Z,52.80
2022-10-26T15:25:07.818Z,52.95
2022-10-26T15:27:34.930Z,52.94
2022-10-26T15:30:20.185Z,53.32
2022-10-26T15:32:47.429Z,53.47
2022-10-26T15:35:30.355Z,53.85
2022-10-26T15:37:58.638Z,54.29
2022-10-26T15:40:27.654Z,54.16
2022-10-26T15:42:55.638Z,54.36
2022-10-26T15:45:24.399Z,54.58
2022-10-26T15:47:52.616Z,54.68
2022-10-26T15:50:21.830Z,54.92
2022-10-26T15:52:52.810Z,55.11
2022-10-26T15:55:19.598Z,55.54
2022-10-26T15:57:46.617Z,55.68
2022-10-26T16:00:16.889Z,55.80
2022-10-26T16:02:45.336Z,55.71
2022-10-26T16:05:13.787Z,55.79
2022-10-26T16:07:43.175Z,55.98
2022-10-26T16:10:17.595Z,56.27
2022-10-26T16:12:44.653Z,56.33
2022-10-26T16:15:18.291Z,56.78
2022-10-26T16:17:45.882Z,56.50
2022-10-26T16:20:15.672Z,56.54
2022-10-26T16:22:46.866Z,56.80
2022-10-26T16:25:16.896Z,56.98
2022-10-26T16:27:44.303Z,56.98
2022-10-26T16:30:14.960Z,57.15
2022-10-26T16:32:43.681Z,57.25
2022-10-26T16:35:11.397Z,57.27
2022-10-26T16:37:38.470Z,57.40
2022-10-26T16:40:06.714Z,57.40
2022-10-26T16:42:35.980Z,57.37
2022-10-26T16:45:03.369Z,57.31
2022-10-26T16:47:35.602Z,57.25
2022-10-26T16:50:02.906Z,57.40
2022-10-26T16:52:29.703Z,57.57
2022-10-26T16:54:56.862Z,57.60
2022-10-26T16:57:23.645Z,57.91
2022-10-26T16:59:51.975Z,57.92
2022-10-26T17:02:18.792Z,57.73
2022-10-26T17:04:45.607Z,57.92
2022-10-26T17:07:12.670Z,57.91
2022-10-26T17:09:39.360Z,57.96
2022-10-26T17:12:06.529Z,58.23
2022-10-26T17:14:33.264Z,58.27
2022-10-26T17:17:01.593Z,58.39
2022-10-26T17:19:28.344Z,58.08
2022-10-26T17:21:55.187Z,58.22
2022-10-26T17:24:21.913Z,58.37
2022-10-26T17:26:48.703Z,58.80
2022-10-26T17:29:15.623Z,58.75
2022-10-26T17:31:42.297Z,58.88
2022-10-26T17:34:10.694Z,58.89
2022-10-26T17:36:37.468Z,59.43
2022-10-26T17:39:04.219Z,59.53
2022-10-26T17:41:31.002Z,59.50
2022-10-26T17:43:57.861Z,59.86
2022-10-26T17:46:26.363Z,60.01
2022-10-26T17:48:58.145Z,60.09
2022-10-26T17:51:27.612Z,60.18
2022-10-26T17:53:54.946Z,60.11
2022-10-26T17:56:23.532Z,60.43
2022-10-26T17:58:54.379Z,60.68
2022-10-26T18:01:21.663Z,60.92
2022-10-26T18:03:48.559Z,60.83
2022-10-26T18:06:17.227Z,60.69
2022-10-26T18:08:45.839Z,60.83
2022-10-26T18:11:15.102Z,60.77
2022-10-26T18:13:41.842Z,60.97
2022-10-26T18:16:11.154Z,61.26
2022-10-26T18:18:41.339Z,61.31
2022-10-26T18:21:10.080Z,60.95
2022-10-26T18:23:37.340Z,60.79
2022-10-26T18:26:11.367Z,61.58
2022-10-26T18:28:40.123Z,61.51
2022-10-26T18:31:08.713Z,61.46
2022-10-26T18:33:35.884Z,61.20
2022-10-26T18:36:04.419Z,61.05
2022-10-26T18:38:31.418Z,61.38
2022-10-26T18:40:58.639Z,61.02
2022-10-26T18:43:27.343Z,61.52
2022-10-26T18:46:02.893Z,62.00
2022-10-26T18:48:29.406Z,61.77
2022-10-26T18:50:56.096Z,62.44
2022-10-26T18:53:22.869Z,61.76
2022-10-26T18:55:49.541Z,62.51
2022-10-26T18:58:16.169Z,62.50
2022-10-26T19:00:44.333Z,62.39
2022-10-26T19:03:11.278Z,62.05
2022-10-26T19:05:41.629Z,62.80
2022-10-26T19:08:11.671Z,62.12
2022-10-26T19:10:38.329Z,62.17
2022-10-26T19:13:07.286Z,61.99
2022-10-26T19:15:34.262Z,62.04
2022-10-26T19:18:02.917Z,62.29
2022-10-26T19:20:30.060Z,62.58
2022-10-26T19:22:56.964Z,62.70
2022-10-26T19:25:23.646Z,62.93
2022-10-26T19:27:51.686Z,63.40
2022-10-26T19:30:18.740Z,63.23
2022-10-26T19:32:45.585Z,63.12
2022-10-26T19:35:13.669Z,62.83
2022-10-26T19:37:40.412Z,62.73
2022-10-26T19:40:08.494Z,62.67
2022-10-26T19:42:35.203Z,62.80
2022-10-26T19:45:01.952Z,62.66
2022-10-26T19:47:28.611Z,62.88
2022-10-26T19:49:55.294Z,63.14
2022-10-26T19:52:23.373Z,62.94
2022-10-26T19:54:50.201Z,63.16
2022-10-26T19:57:16.949Z,62.84
2022-10-26T19:59:43.634Z,63.20
2022-10-26T20:02:10.283Z,62.39
2022-10-26T20:04:36.946Z,62.63
2022-10-26T20:07:03.555Z,62.82
2022-10-26T20:09:32.718Z,63.06
2022-10-26T20:11:59.385Z,63.26
2022-10-26T20:14:26.084Z,63.58
2022-10-26T20:16:55.084Z,63.52
2022-10-26T20:19:21.830Z,63.33
2022-10-26T20:21:48.429Z,62.91
2022-10-26T20:24:15.132Z,62.96
2022-10-26T20:26:43.176Z,63.24
2022-10-26T20:29:10.163Z,63.53
2022-10-26T20:31:36.833Z,63.78
2022-10-26T20:34:03.749Z,64.07
2022-10-26T20:36:30.378Z,64.53
2022-10-26T20:38:57.628Z,64.27
2022-10-26T20:41:24.871Z,63.68
2022-10-26T20:43:57.134Z,64.04
2022-10-26T20:46:26.729Z,64.12
2022-10-26T20:48:54.567Z,63.87
2022-10-26T20:51:26.520Z,63.84
2022-10-26T20:54:03.463Z,63.63
2022-10-26T20:56:32.983Z,63.95
2022-10-26T20:59:03.781Z,64.44
2022-10-26T21:01:33.518Z,64.58
2022-10-26T21:04:02.075Z,64.43
2022-10-26T21:06:29.152Z,64.37
2022-10-26T21:08:57.328Z,64.77
2022-10-26T21:11:25.346Z,64.58
2022-10-26T21:13:53.830Z,64.18
2022-10-26T21:18:53.626Z,64.22
2022-10-26T21:21:20.664Z,63.96
2022-10-26T21:23:47.691Z,63.86
2022-10-26T21:26:14.433Z,63.46
2022-10-26T21:28:42.996Z,63.68
2022-10-26T21:31:11.718Z,63.99
2022-10-26T21:33:39.797Z,64.35
2022-10-26T21:36:08.681Z,64.06
2022-10-26T21:38:35.536Z,64.02
2022-10-26T21:41:03.998Z,63.42
2022-10-26T21:43:30.860Z,63.09
2022-10-26T21:45:58.285Z,63.47
2022-10-26T21:48:25.041Z,63.86
2022-10-26T21:50:53.235Z,64.00
2022-10-26T21:53:20.283Z,64.19
2022-10-26T21:55:47.328Z,64.09
2022-10-26T21:58:16.659Z,64.03
2022-10-26T22:00:43.405Z,64.20
2022-10-26T22:03:10.396Z,63.92
2022-10-26T22:05:37.159Z,63.64
2022-10-26T22:08:05.427Z,63.96
2022-10-26T22:10:32.147Z,64.15
2022-10-26T22:12:59.555Z,63.92
2022-10-26T22:15:26.405Z,63.86
2022-10-26T22:17:53.323Z,64.09
2022-10-26T22:20:20.121Z,64.01
2022-10-26T22:22:46.771Z,64.57
2022-10-26T22:25:14.894Z,64.54
2022-10-26T22:27:41.608Z,64.57
2022-10-26T22:30:09.537Z,65.00
2022-10-26T22:32:36.287Z,64.93
2022-10-26T22:35:17.455Z,64.53
2022-10-26T22:37:49.683Z,64.73
2022-10-26T22:40:17.829Z,64.80
2022-10-26T22:42:44.486Z,64.83
2022-10-26T22:45:11.193Z,65.08
2022-10-26T22:47:37.933Z,65.14
2022-10-26T22:50:05.436Z,65.13
2022-10-26T22:52:33.800Z,64.72
2022-10-26T22:55:00.759Z,64.44
2022-10-26T22:57:29.084Z,64.17
2022-10-26T22:59:55.809Z,63.88
2022-10-26T23:02:22.610Z,63.94
2022-10-26T23:04:49.325Z,64.12
2022-10-26T23:07:16.329Z,64.26
2022-10-26T23:09:43.086Z,64.56
2022-10-26T23:12:09.753Z,64.65
2022-10-26T23:14:37.794Z,64.55
2022-10-26T23:17:06.097Z,64.80
2022-10-26T23:19:32.910Z,65.06
2022-10-26T23:21:59.576Z,65.02
2022-10-26T23:24:26.500Z,64.96
2022-10-26T23:26:53.176Z,64.74
2022-10-26T23:29:19.855Z,64.71
2022-10-26T23:31:47.856Z,65.03
2022-10-26T23:34:14.717Z,65.07
2022-10-26T23:36:41.372Z,65.17
2022-10-26T23:39:08.057Z,65.00
2022-10-26T23:41:35.028Z,64.80
2022-10-26T23:44:01.906Z,64.23
2022-10-26T23:46:28.771Z,64.54
2022-10-26T23:48:56.891Z,64.79
2022-10-26T23:51:23.742Z,65.08
2022-10-26T23:53:50.490Z,64.98
2022-10-26T23:56:17.213Z,64.83
2022-10-26T23:58:43.974Z,65.01
